sensor_id;sensor_type;location;lat;lon;timestamp;pressure;altitude;pressure_sealevel;temperature;humidity
78354;BME280;67629;46.040;18.232;2024-01-10T00:00:09;101302.03;;;-3.83;93.88
78354;BME280;67629;46.040;18.232;2024-01-10T00:00:40;101310.66;;;-3.79;93.63
78354;BME280;67629;46.040;18.232;2024-01-10T00:01:11;101309.69;;;-3.78;93.83
78354;BME280;67629;46.040;18.232;2024-01-10T00:01:41;101313.00;;;-3.75;93.29
78354;BME280;67629;46.040;18.232;2024-01-10T00:02:12;101308.50;;;-3.74;93.60
78354;BME280;67629;46.040;18.232;2024-01-10T00:02:42;101308.72;;;-3.77;94.15
78354;BME280;67629;46.040;18.232;2024-01-10T00:03:13;101315.38;;;-3.83;94.16
78354;BME280;67629;46.040;18.232;2024-01-10T00:03:44;101310.75;;;-3.81;93.98
78354;BME280;67629;46.040;18.232;2024-01-10T00:04:15;101307.00;;;-3.78;94.02
78354;BME280;67629;46.040;18.232;2024-01-10T00:04:47;101317.59;;;-3.77;93.64
78354;BME280;67629;46.040;18.232;2024-01-10T00:05:17;101315.25;;;-3.81;93.26
78354;BME280;67629;46.040;18.232;2024-01-10T00:05:48;101306.72;;;-3.86;93.32
78354;BME280;67629;46.040;18.232;2024-01-10T00:06:18;101311.31;;;-3.88;94.08
78354;BME280;67629;46.040;18.232;2024-01-10T00:12:12;101313.47;;;-3.93;93.66
78354;BME280;67629;46.040;18.232;2024-01-10T00:12:43;101323.94;;;-3.90;93.44
78354;BME280;67629;46.040;18.232;2024-01-10T00:13:14;101311.41;;;-3.90;93.30
78354;BME280;67629;46.040;18.232;2024-01-10T00:13:45;101313.88;;;-3.87;93.50
78354;BME280;67629;46.040;18.232;2024-01-10T00:14:16;101315.94;;;-3.90;93.10
78354;BME280;67629;46.040;18.232;2024-01-10T00:14:46;101312.28;;;-3.89;93.38
78354;BME280;67629;46.040;18.232;2024-01-10T00:15:17;101309.53;;;-3.88;92.47
78354;BME280;67629;46.040;18.232;2024-01-10T00:15:48;101318.13;;;-3.84;92.30
78354;BME280;67629;46.040;18.232;2024-01-10T00:16:19;101310.47;;;-3.89;92.36
78354;BME280;67629;46.040;18.232;2024-01-10T00:16:50;101311.09;;;-3.85;92.39
78354;BME280;67629;46.040;18.232;2024-01-10T00:17:21;101305.34;;;-3.92;92.10
78354;BME280;67629;46.040;18.232;2024-01-10T00:17:51;101309.53;;;-3.88;92.47
78354;BME280;67629;46.040;18.232;2024-01-10T00:18:22;101313.66;;;-3.84;92.18
78354;BME280;67629;46.040;18.232;2024-01-10T00:18:52;101309.53;;;-3.88;92.20
78354;BME280;67629;46.040;18.232;2024-01-10T00:19:23;101306.00;;;-3.88;92.17
78354;BME280;67629;46.040;18.232;2024-01-10T00:19:54;101306.00;;;-3.88;91.94
78354;BME280;67629;46.040;18.232;2024-01-10T00:20:24;101311.19;;;-3.87;92.28
78354;BME280;67629;46.040;18.232;2024-01-10T00:20:55;101312.06;;;-3.86;92.54
78354;BME280;67629;46.040;18.232;2024-01-10T00:21:26;101310.59;;;-3.90;92.55
78354;BME280;67629;46.040;18.232;2024-01-10T00:23:11;101306.00;;;-3.88;92.07
78354;BME280;67629;46.040;18.232;2024-01-10T00:23:42;101307.59;;;-3.86;92.30
78354;BME280;67629;46.040;18.232;2024-01-10T00:24:12;101309.31;;;-3.85;91.67
78354;BME280;67629;46.040;18.232;2024-01-10T00:24:44;101312.06;;;-3.86;91.69
78354;BME280;67629;46.040;18.232;2024-01-10T00:25:15;101304.41;;;-3.91;91.75
78354;BME280;67629;46.040;18.232;2024-01-10T00:25:46;101304.41;;;-3.91;92.19
78354;BME280;67629;46.040;18.232;2024-01-10T00:26:17;101301.59;;;-3.89;91.87
78354;BME280;67629;46.040;18.232;2024-01-10T00:26:48;101307.94;;;-3.90;92.61
78354;BME280;67629;46.040;18.232;2024-01-10T00:27:18;101309.97;;;-3.94;92.50
78354;BME280;67629;46.040;18.232;2024-01-10T00:27:49;101301.53;;;-4.00;92.14
78354;BME280;67629;46.040;18.232;2024-01-10T00:28:19;101301.75;;;-4.04;92.47
78354;BME280;67629;46.040;18.232;2024-01-10T00:28:50;101311.97;;;-3.97;92.65
78354;BME280;67629;46.040;18.232;2024-01-10T00:29:21;101303.34;;;-4.01;92.79
78354;BME280;67629;46.040;18.232;2024-01-10T00:29:51;101311.25;;;-3.99;92.39
78354;BME280;67629;46.040;18.232;2024-01-10T00:30:22;101309.53;;;-4.00;92.71
78354;BME280;67629;46.040;18.232;2024-01-10T00:30:53;101307.81;;;-4.02;92.55
78354;BME280;67629;46.040;18.232;2024-01-10T00:31:23;101314.78;;;-3.99;92.28
78354;BME280;67629;46.040;18.232;2024-01-10T00:31:54;101305.38;;;-4.05;92.62
78354;BME280;67629;46.040;18.232;2024-01-10T00:32:25;101299.22;;;-4.05;92.58
78354;BME280;67629;46.040;18.232;2024-01-10T00:34:32;101306.53;;;-3.96;92.39
78354;BME280;67629;46.040;18.232;2024-01-10T00:35:02;101302.03;;;-3.95;92.40
78354;BME280;67629;46.040;18.232;2024-01-10T00:35:33;101305.69;;;-3.96;92.14
78354;BME280;67629;46.040;18.232;2024-01-10T00:36:04;101301.09;;;-3.94;92.38
78354;BME280;67629;46.040;18.232;2024-01-10T00:36:35;101310.06;;;-3.95;92.07
78354;BME280;67629;46.040;18.232;2024-01-10T00:37:06;101322.53;;;-3.96;92.29
78354;BME280;67629;46.040;18.232;2024-01-10T00:37:36;101316.59;;;-3.99;92.67
78354;BME280;67629;46.040;18.232;2024-01-10T00:38:07;101305.38;;;-4.05;92.21
78354;BME280;67629;46.040;18.232;2024-01-10T00:38:38;101317.66;;;-4.02;93.11
78354;BME280;67629;46.040;18.232;2024-01-10T00:39:08;101310.09;;;-4.08;93.00
78354;BME280;67629;46.040;18.232;2024-01-10T00:39:39;101316.28;;;-4.08;92.52
78354;BME280;67629;46.040;18.232;2024-01-10T00:40:10;101309.22;;;-4.09;93.26
78354;BME280;67629;46.040;18.232;2024-01-10T00:40:41;101309.09;;;-4.07;92.70
78354;BME280;67629;46.040;18.232;2024-01-10T00:41:11;101305.28;;;-4.16;93.16
78354;BME280;67629;46.040;18.232;2024-01-10T00:41:43;101313.94;;;-4.12;93.14
78354;BME280;67629;46.040;18.232;2024-01-10T00:42:13;101317.53;;;-4.13;93.14
78354;BME280;67629;46.040;18.232;2024-01-10T00:42:44;101311.47;;;-4.15;92.99
78354;BME280;67629;46.040;18.232;2024-01-10T00:43:14;101315.00;;;-4.15;93.35
78354;BME280;67629;46.040;18.232;2024-01-10T00:43:45;101310.53;;;-4.14;93.10
78354;BME280;67629;46.040;18.232;2024-01-10T00:44:16;101308.81;;;-4.15;93.61
78354;BME280;67629;46.040;18.232;2024-01-10T00:44:46;101318.63;;;-4.16;93.21
78354;BME280;67629;46.040;18.232;2024-01-10T00:45:17;101305.72;;;-4.22;93.79
78354;BME280;67629;46.040;18.232;2024-01-10T00:45:48;101315.34;;;-4.19;93.66
78354;BME280;67629;46.040;18.232;2024-01-10T00:46:18;101306.91;;;-4.26;93.96
78354;BME280;67629;46.040;18.232;2024-01-10T00:46:49;101313.84;;;-4.23;93.68
78354;BME280;67629;46.040;18.232;2024-01-10T00:47:19;101310.66;;;-4.28;93.93
78354;BME280;67629;46.040;18.232;2024-01-10T00:47:50;101309.47;;;-4.37;94.66
78354;BME280;67629;46.040;18.232;2024-01-10T00:48:21;101323.13;;;-4.29;94.68
78354;BME280;67629;46.040;18.232;2024-01-10T00:51:29;101323.44;;;-4.33;93.50
78354;BME280;67629;46.040;18.232;2024-01-10T00:51:59;101313.97;;;-4.37;93.56
78354;BME280;67629;46.040;18.232;2024-01-10T00:52:30;101323.75;;;-4.38;93.83
78354;BME280;67629;46.040;18.232;2024-01-10T00:53:01;101321.22;;;-4.39;93.89
78354;BME280;67629;46.040;18.232;2024-01-10T00:53:32;101320.03;;;-4.48;93.64
78354;BME280;67629;46.040;18.232;2024-01-10T00:54:02;101321.09;;;-4.50;94.11
78354;BME280;67629;46.040;18.232;2024-01-10T00:54:33;101316.81;;;-4.53;94.22
78354;BME280;67629;46.040;18.232;2024-01-10T00:55:04;101312.47;;;-4.54;93.80
78354;BME280;67629;46.040;18.232;2024-01-10T00:55:34;101315.00;;;-4.52;93.87
78354;BME280;67629;46.040;18.232;2024-01-10T00:56:06;101324.72;;;-4.51;94.50
78354;BME280;67629;46.040;18.232;2024-01-10T00:56:37;101322.28;;;-4.54;94.21
78354;BME280;67629;46.040;18.232;2024-01-10T00:57:07;101327.59;;;-4.54;94.65
78354;BME280;67629;46.040;18.232;2024-01-10T00:57:38;101319.28;;;-4.63;94.24
78354;BME280;67629;46.040;18.232;2024-01-10T00:58:09;101318.00;;;-4.70;94.67
78354;BME280;67629;46.040;18.232;2024-01-10T00:58:40;101322.91;;;-4.64;94.72
78354;BME280;67629;46.040;18.232;2024-01-10T00:59:11;101309.69;;;-4.65;95.00
78354;BME280;67629;46.040;18.232;2024-01-10T00:59:42;101325.25;;;-4.59;94.72
78354;BME280;67629;46.040;18.232;2024-01-10T01:00:13;101322.56;;;-4.59;95.06
78354;BME280;67629;46.040;18.232;2024-01-10T01:06:17;101326.63;;;-4.66;94.92
78354;BME280;67629;46.040;18.232;2024-01-10T01:06:49;101329.41;;;-4.68;95.38
78354;BME280;67629;46.040;18.232;2024-01-10T01:07:20;101316.94;;;-4.67;95.10
78354;BME280;67629;46.040;18.232;2024-01-10T01:07:50;101329.31;;;-4.66;95.23
78354;BME280;67629;46.040;18.232;2024-01-10T01:08:21;101329.31;;;-4.66;94.97
78354;BME280;67629;46.040;18.232;2024-01-10T01:08:52;101321.63;;;-4.71;95.67
78354;BME280;67629;46.040;18.232;2024-01-10T01:09:22;101325.91;;;-4.68;95.22
78354;BME280;67629;46.040;18.232;2024-01-10T01:09:53;101326.72;;;-4.68;95.62
78354;BME280;67629;46.040;18.232;2024-01-10T01:10:23;101320.66;;;-4.70;95.40
78354;BME280;67629;46.040;18.232;2024-01-10T01:10:54;101322.38;;;-4.69;95.64
78354;BME280;67629;46.040;18.232;2024-01-10T01:11:25;101316.41;;;-4.72;95.85
78354;BME280;67629;46.040;18.232;2024-01-10T01:11:56;101331.31;;;-4.70;95.07
78354;BME280;67629;46.040;18.232;2024-01-10T01:12:27;101317.03;;;-4.69;95.72
78354;BME280;67629;46.040;18.232;2024-01-10T01:12:57;101320.56;;;-4.68;95.79
78354;BME280;67629;46.040;18.232;2024-01-10T01:13:28;101323.25;;;-4.68;95.38
78354;BME280;67629;46.040;18.232;2024-01-10T01:13:59;101324.06;;;-4.68;95.09
78354;BME280;67629;46.040;18.232;2024-01-10T01:14:29;101324.19;;;-4.69;95.43
78354;BME280;67629;46.040;18.232;2024-01-10T01:15:00;101322.91;;;-4.64;95.62
78354;BME280;67629;46.040;18.232;2024-01-10T01:15:31;101321.97;;;-4.63;95.38
78354;BME280;67629;46.040;18.232;2024-01-10T01:16:57;101329.72;;;-4.72;95.06
78354;BME280;67629;46.040;18.232;2024-01-10T01:17:27;101329.19;;;-4.77;95.03
78354;BME280;67629;46.040;18.232;2024-01-10T01:17:58;101336.22;;;-4.76;95.42
78354;BME280;67629;46.040;18.232;2024-01-10T01:18:29;101333.44;;;-4.75;95.24
78354;BME280;67629;46.040;18.232;2024-01-10T01:18:59;101330.13;;;-4.78;95.75
78354;BME280;67629;46.040;18.232;2024-01-10T01:19:30;101334.06;;;-4.84;96.15
78354;BME280;67629;46.040;18.232;2024-01-10T01:20:01;101336.84;;;-4.85;96.34
78354;BME280;67629;46.040;18.232;2024-01-10T01:20:34;101335.88;;;-4.84;96.51
78354;BME280;67629;46.040;18.232;2024-01-10T01:21:05;101326.81;;;-4.94;96.68
78354;BME280;67629;46.040;18.232;2024-01-10T01:21:35;101332.69;;;-4.89;96.80
78354;BME280;67629;46.040;18.232;2024-01-10T01:22:06;101336.28;;;-4.90;96.41
78354;BME280;67629;46.040;18.232;2024-01-10T01:22:37;101328.28;;;-4.90;96.92
78354;BME280;67629;46.040;18.232;2024-01-10T01:23:07;101345.13;;;-4.90;96.84
78354;BME280;67629;46.040;18.232;2024-01-10T01:23:38;101335.56;;;-4.92;97.28
78354;BME280;67629;46.040;18.232;2024-01-10T01:24:09;101331.16;;;-4.93;97.45
78354;BME280;67629;46.040;18.232;2024-01-10T01:24:40;101334.28;;;-4.99;97.38
78354;BME280;67629;46.040;18.232;2024-01-10T01:25:10;101332.75;;;-5.03;97.58
78354;BME280;67629;46.040;18.232;2024-01-10T01:29:29;101333.56;;;-5.15;98.16
78354;BME280;67629;46.040;18.232;2024-01-10T01:29:59;101329.63;;;-5.23;98.24
78354;BME280;67629;46.040;18.232;2024-01-10T01:30:30;101338.88;;;-5.28;98.26
78354;BME280;67629;46.040;18.232;2024-01-10T01:31:01;101329.38;;;-5.32;98.23
78354;BME280;67629;46.040;18.232;2024-01-10T01:31:31;101332.69;;;-5.29;98.32
78354;BME280;67629;46.040;18.232;2024-01-10T01:32:02;101331.81;;;-5.29;98.71
78354;BME280;67629;46.040;18.232;2024-01-10T01:32:33;101331.56;;;-5.39;98.58
78354;BME280;67629;46.040;18.232;2024-01-10T01:33:04;101337.56;;;-5.35;98.48
78354;BME280;67629;46.040;18.232;2024-01-10T01:33:35;101339.66;;;-5.40;98.59
78354;BME280;67629;46.040;18.232;2024-01-10T01:34:06;101332.81;;;-5.44;99.04
78354;BME280;67629;46.040;18.232;2024-01-10T01:34:37;101338.06;;;-5.43;99.09
78354;BME280;67629;46.040;18.232;2024-01-10T01:35:07;101331.56;;;-5.39;99.02
78354;BME280;67629;46.040;18.232;2024-01-10T01:35:38;101326.69;;;-5.32;98.72
78354;BME280;67629;46.040;18.232;2024-01-10T01:36:09;101336.28;;;-5.30;98.28
78354;BME280;67629;46.040;18.232;2024-01-10T01:36:39;101336.59;;;-5.34;98.59
78354;BME280;67629;46.040;18.232;2024-01-10T01:37:10;101336.50;;;-5.33;98.92
78354;BME280;67629;46.040;18.232;2024-01-10T01:37:41;101329.38;;;-5.32;98.96
78354;BME280;67629;46.040;18.232;2024-01-10T01:38:12;101326.25;;;-5.39;99.07
78354;BME280;67629;46.040;18.232;2024-01-10T01:38:42;101333.38;;;-5.39;99.33
78354;BME280;67629;46.040;18.232;2024-01-10T01:39:13;101327.22;;;-5.40;99.56
78354;BME280;67629;46.040;18.232;2024-01-10T01:39:44;101344.13;;;-5.41;99.57
78354;BME280;67629;46.040;18.232;2024-01-10T01:40:14;101337.00;;;-5.40;99.69
78354;BME280;67629;46.040;18.232;2024-01-10T01:40:45;101335.41;;;-5.43;99.70
78354;BME280;67629;46.040;18.232;2024-01-10T01:41:16;101329.41;;;-5.46;99.47
78354;BME280;67629;46.040;18.232;2024-01-10T01:41:48;101330.47;;;-5.49;99.43
78354;BME280;67629;46.040;18.232;2024-01-10T01:42:18;101324.50;;;-5.52;99.72
78354;BME280;67629;46.040;18.232;2024-01-10T01:42:49;101338.06;;;-5.43;99.67
78354;BME280;67629;46.040;18.232;2024-01-10T01:43:24;101327.69;;;-5.47;99.77
78354;BME280;67629;46.040;18.232;2024-01-10T01:43:55;101324.09;;;-5.46;99.77
78354;BME280;67629;46.040;18.232;2024-01-10T01:44:26;101328.16;;;-5.41;100.00
78354;BME280;67629;46.040;18.232;2024-01-10T01:44:56;101327.31;;;-5.41;99.73
78354;BME280;67629;46.040;18.232;2024-01-10T01:45:42;101335.09;;;-5.38;99.99
78354;BME280;67629;46.040;18.232;2024-01-10T01:46:12;101330.06;;;-5.43;100.00
78354;BME280;67629;46.040;18.232;2024-01-10T01:46:44;101333.47;;;-5.41;100.00
78354;BME280;67629;46.040;18.232;2024-01-10T01:47:16;101331.97;;;-5.45;99.77
78354;BME280;67629;46.040;18.232;2024-01-10T01:47:47;101331.34;;;-5.48;99.87
78354;BME280;67629;46.040;18.232;2024-01-10T01:48:18;101327.03;;;-5.51;99.90
78354;BME280;67629;46.040;18.232;2024-01-10T01:48:50;101335.03;;;-5.51;100.00
78354;BME280;67629;46.040;18.232;2024-01-10T01:49:21;101332.69;;;-5.55;100.00
78354;BME280;67629;46.040;18.232;2024-01-10T01:49:52;101327.28;;;-5.54;100.00
78354;BME280;67629;46.040;18.232;2024-01-10T01:50:22;101325.44;;;-5.53;100.00
78354;BME280;67629;46.040;18.232;2024-01-10T01:50:57;101331.41;;;-5.50;100.00
78354;BME280;67629;46.040;18.232;2024-01-10T01:51:29;101330.75;;;-5.53;99.67
78354;BME280;67629;46.040;18.232;2024-01-10T01:52:02;101319.47;;;-5.57;99.78
78354;BME280;67629;46.040;18.232;2024-01-10T01:52:33;101322.16;;;-5.57;100.00
78354;BME280;67629;46.040;18.232;2024-01-10T01:53:05;101323.38;;;-5.62;99.85
78354;BME280;67629;46.040;18.232;2024-01-10T01:53:36;101328.81;;;-5.64;100.00
78354;BME280;67629;46.040;18.232;2024-01-10T01:54:07;101331.78;;;-5.68;100.00
78354;BME280;67629;46.040;18.232;2024-01-10T01:54:39;101322.72;;;-5.66;100.00
78354;BME280;67629;46.040;18.232;2024-01-10T01:55:11;101327.00;;;-5.63;99.87
78354;BME280;67629;46.040;18.232;2024-01-10T01:55:45;101322.34;;;-5.60;99.85
78354;BME280;67629;46.040;18.232;2024-01-10T01:56:16;101323.16;;;-5.59;100.00
78354;BME280;67629;46.040;18.232;2024-01-10T01:56:48;101326.50;;;-5.56;99.84
78354;BME280;67629;46.040;18.232;2024-01-10T01:57:19;101323.94;;;-5.57;99.90
78354;BME280;67629;46.040;18.232;2024-01-10T01:57:50;101316.91;;;-5.58;99.70
78354;BME280;67629;46.040;18.232;2024-01-10T01:58:22;101310.38;;;-5.67;100.00
78354;BME280;67629;46.040;18.232;2024-01-10T01:58:54;101328.91;;;-5.65;100.00
78354;BME280;67629;46.040;18.232;2024-01-10T01:59:25;101320.94;;;-5.65;99.55
78354;BME280;67629;46.040;18.232;2024-01-10T01:59:57;101318.00;;;-5.75;99.89
78354;BME280;67629;46.040;18.232;2024-01-10T02:00:27;101318.56;;;-5.70;99.44
78354;BME280;67629;46.040;18.232;2024-01-10T02:02:01;101319.72;;;-5.74;99.54
78354;BME280;67629;46.040;18.232;2024-01-10T02:02:34;101318.28;;;-5.65;100.00
78354;BME280;67629;46.040;18.232;2024-01-10T02:03:08;101327.19;;;-5.66;100.00
78354;BME280;67629;46.040;18.232;2024-01-10T02:03:39;101318.91;;;-5.62;100.00
78354;BME280;67629;46.040;18.232;2024-01-10T02:04:10;101319.47;;;-5.57;100.00
78354;BME280;67629;46.040;18.232;2024-01-10T02:04:40;101322.22;;;-5.58;100.00
78354;BME280;67629;46.040;18.232;2024-01-10T02:05:12;101312.63;;;-5.61;100.00
78354;BME280;67629;46.040;18.232;2024-01-10T02:05:46;101307.13;;;-5.58;100.00
78354;BME280;67629;46.040;18.232;2024-01-10T02:06:17;101314.34;;;-5.60;100.00
78354;BME280;67629;46.040;18.232;2024-01-10T02:06:48;101321.38;;;-5.59;100.00
78354;BME280;67629;46.040;18.232;2024-01-10T02:07:18;101316.91;;;-5.58;100.00
78354;BME280;67629;46.040;18.232;2024-01-10T02:07:49;101316.34;;;-5.63;100.00
78354;BME280;67629;46.040;18.232;2024-01-10T02:08:20;101313.69;;;-5.63;100.00
78354;BME280;67629;46.040;18.232;2024-01-10T02:08:51;101307.16;;;-5.72;100.00
78354;BME280;67629;46.040;18.232;2024-01-10T02:09:23;101317.50;;;-5.67;100.00
78354;BME280;67629;46.040;18.232;2024-01-10T02:09:53;101308.44;;;-5.65;100.00
78354;BME280;67629;46.040;18.232;2024-01-10T02:10:24;101313.69;;;-5.63;100.00
78354;BME280;67629;46.040;18.232;2024-01-10T02:16:18;101303.31;;;-5.68;100.00
78354;BME280;67629;46.040;18.232;2024-01-10T02:16:49;101308.44;;;-5.65;100.00
78354;BME280;67629;46.040;18.232;2024-01-10T02:17:20;101304.84;;;-5.64;100.00
78354;BME280;67629;46.040;18.232;2024-01-10T02:17:50;101307.63;;;-5.65;100.00
78354;BME280;67629;46.040;18.232;2024-01-10T02:18:21;101312.09;;;-5.66;100.00
78354;BME280;67629;46.040;18.232;2024-01-10T02:18:52;101295.53;;;-5.71;100.00
78354;BME280;67629;46.040;18.232;2024-01-10T02:19:23;101301.66;;;-5.69;100.00
78354;BME280;67629;46.040;18.232;2024-01-10T02:20:43;101304.59;;;-5.73;100.00
78354;BME280;67629;46.040;18.232;2024-01-10T02:21:14;101300.25;;;-5.74;100.00
78354;BME280;67629;46.040;18.232;2024-01-10T02:21:44;101300.97;;;-5.72;100.00
78354;BME280;67629;46.040;18.232;2024-01-10T02:22:16;101301.84;;;-5.72;100.00
78354;BME280;67629;46.040;18.232;2024-01-10T02:22:47;101298.31;;;-5.72;100.00
78354;BME280;67629;46.040;18.232;2024-01-10T02:23:18;101300.88;;;-5.71;100.00
78354;BME280;67629;46.040;18.232;2024-01-10T02:23:48;101300.88;;;-5.71;100.00
78354;BME280;67629;46.040;18.232;2024-01-10T02:24:19;101303.75;;;-5.74;100.00
78354;BME280;67629;46.040;18.232;2024-01-10T02:24:53;101304.91;;;-5.78;100.00
78354;BME280;67629;46.040;18.232;2024-01-10T02:25:24;101305.75;;;-5.78;100.00
78354;BME280;67629;46.040;18.232;2024-01-10T02:31:18;101299.34;;;-5.88;100.00
78354;BME280;67629;46.040;18.232;2024-01-10T02:31:48;101291.47;;;-5.89;100.00
78354;BME280;67629;46.040;18.232;2024-01-10T02:32:19;101298.69;;;-5.91;100.00
78354;BME280;67629;46.040;18.232;2024-01-10T02:32:49;101297.66;;;-5.89;100.00
78354;BME280;67629;46.040;18.232;2024-01-10T02:33:20;101297.66;;;-5.89;100.00
78354;BME280;67629;46.040;18.232;2024-01-10T02:33:51;101298.28;;;-5.85;100.00
78354;BME280;67629;46.040;18.232;2024-01-10T02:34:21;101302.44;;;-5.81;100.00
78354;BME280;67629;46.040;18.232;2024-01-10T02:34:52;101300.94;;;-5.85;100.00
78354;BME280;67629;46.040;18.232;2024-01-10T02:35:22;101298.03;;;-5.82;100.00
78354;BME280;67629;46.040;18.232;2024-01-10T02:35:54;101303.59;;;-5.85;100.00
78354;BME280;67629;46.040;18.232;2024-01-10T02:36:24;101307.94;;;-5.84;100.00
78354;BME280;67629;46.040;18.232;2024-01-10T02:36:56;101307.22;;;-5.86;100.00
78354;BME280;67629;46.040;18.232;2024-01-10T02:37:27;101301.69;;;-5.83;100.00
78354;BME280;67629;46.040;18.232;2024-01-10T02:37:59;101300.72;;;-5.82;100.00
78354;BME280;67629;46.040;18.232;2024-01-10T02:38:29;101297.84;;;-5.79;100.00
78354;BME280;67629;46.040;18.232;2024-01-10T02:39:00;101301.28;;;-5.77;100.00
78354;BME280;67629;46.040;18.232;2024-01-10T02:39:30;101308.41;;;-5.78;99.95
78354;BME280;67629;46.040;18.232;2024-01-10T02:40:01;101298.63;;;-5.77;99.95
78354;BME280;67629;46.040;18.232;2024-01-10T02:40:32;101298.81;;;-5.80;100.00
78354;BME280;67629;46.040;18.232;2024-01-10T02:46:15;101311.50;;;-5.71;99.93
78354;BME280;67629;46.040;18.232;2024-01-10T02:46:48;101306.97;;;-5.69;100.00
78354;BME280;67629;46.040;18.232;2024-01-10T02:47:18;101305.16;;;-5.68;99.96
78354;BME280;67629;46.040;18.232;2024-01-10T02:47:49;101309.63;;;-5.69;99.68
78354;BME280;67629;46.040;18.232;2024-01-10T02:48:20;101297.94;;;-5.66;100.00
78354;BME280;67629;46.040;18.232;2024-01-10T02:48:50;101300.28;;;-5.62;99.41
78354;BME280;67629;46.040;18.232;2024-01-10T02:49:21;101302.94;;;-5.62;99.83
78354;BME280;67629;46.040;18.232;2024-01-10T02:49:52;101298.88;;;-5.67;99.44
78354;BME280;67629;46.040;18.232;2024-01-10T02:50:22;101305.72;;;-5.63;99.97
78354;BME280;67629;46.040;18.232;2024-01-10T02:50:53;101309.13;;;-5.61;99.72
78354;BME280;67629;46.040;18.232;2024-01-10T02:51:26;101296.56;;;-5.59;99.48
78354;BME280;67629;46.040;18.232;2024-01-10T02:51:57;101308.31;;;-5.49;99.68
78354;BME280;67629;46.040;18.232;2024-01-10T02:52:28;101293.22;;;-5.49;99.11
78354;BME280;67629;46.040;18.232;2024-01-10T02:52:59;101296.63;;;-5.47;99.22
78354;BME280;67629;46.040;18.232;2024-01-10T02:53:29;101310.59;;;-5.43;99.26
78354;BME280;67629;46.040;18.232;2024-01-10T02:54:00;101303.75;;;-5.47;98.71
78354;BME280;67629;46.040;18.232;2024-01-10T02:54:31;101304.53;;;-5.45;98.52
78354;BME280;67629;46.040;18.232;2024-01-10T02:55:01;101294.81;;;-5.46;99.14
78354;BME280;67629;46.040;18.232;2024-01-10T02:55:32;101306.19;;;-5.44;98.71
78354;BME280;67629;46.040;18.232;2024-01-10T02:56:03;101297.69;;;-5.49;99.14
78354;BME280;67629;46.040;18.232;2024-01-10T02:56:34;101304.59;;;-5.47;98.66
78354;BME280;67629;46.040;18.232;2024-01-10T02:57:04;101300.78;;;-5.43;98.40
78354;BME280;67629;46.040;18.232;2024-01-10T02:57:35;101301.41;;;-5.39;98.67
78354;BME280;67629;46.040;18.232;2024-01-10T02:58:06;101296.97;;;-5.39;98.08
78354;BME280;67629;46.040;18.232;2024-01-10T02:58:36;101293.00;;;-5.46;98.12
78354;BME280;67629;46.040;18.232;2024-01-10T02:59:07;101300.22;;;-5.48;98.25
78354;BME280;67629;46.040;18.232;2024-01-10T02:59:37;101296.94;;;-5.51;97.91
78354;BME280;67629;46.040;18.232;2024-01-10T03:00:09;101301.19;;;-5.49;98.23
78354;BME280;67629;46.040;18.232;2024-01-10T03:00:39;101303.94;;;-5.50;98.25
78354;BME280;67629;46.040;18.232;2024-01-10T03:01:10;101304.72;;;-5.48;98.27
78354;BME280;67629;46.040;18.232;2024-01-10T03:01:41;101300.22;;;-5.48;98.61
78354;BME280;67629;46.040;18.232;2024-01-10T03:02:12;101292.03;;;-5.45;97.94
78354;BME280;67629;46.040;18.232;2024-01-10T03:02:42;101298.03;;;-5.41;98.33
78354;BME280;67629;46.040;18.232;2024-01-10T03:03:13;101301.22;;;-5.36;97.58
78354;BME280;67629;46.040;18.232;2024-01-10T03:03:44;101294.09;;;-5.36;98.20
78354;BME280;67629;46.040;18.232;2024-01-10T03:04:15;101303.59;;;-5.32;97.64
78354;BME280;67629;46.040;18.232;2024-01-10T03:04:45;101295.63;;;-5.32;97.69
78354;BME280;67629;46.040;18.232;2024-01-10T03:05:16;101298.28;;;-5.32;97.32
78354;BME280;67629;46.040;18.232;2024-01-10T03:08:33;101304.00;;;-5.38;97.17
78354;BME280;67629;46.040;18.232;2024-01-10T03:09:04;101306.53;;;-5.36;96.98
78354;BME280;67629;46.040;18.232;2024-01-10T03:09:34;101302.28;;;-5.39;97.10
78354;BME280;67629;46.040;18.232;2024-01-10T03:10:05;101302.28;;;-5.39;97.28
78354;BME280;67629;46.040;18.232;2024-01-10T03:10:36;101310.19;;;-5.37;97.00
78354;BME280;67629;46.040;18.232;2024-01-10T03:11:06;101301.41;;;-5.39;97.46
78354;BME280;67629;46.040;18.232;2024-01-10T03:11:37;101307.31;;;-5.34;97.44
78354;BME280;67629;46.040;18.232;2024-01-10T03:12:09;101304.66;;;-5.34;97.01
78354;BME280;67629;46.040;18.232;2024-01-10T03:12:41;101297.50;;;-5.34;96.60
78354;BME280;67629;46.040;18.232;2024-01-10T03:13:12;101299.00;;;-5.30;97.17
78354;BME280;67629;46.040;18.232;2024-01-10T03:13:46;101311.19;;;-5.26;97.00
78354;BME280;67629;46.040;18.232;2024-01-10T03:14:17;101303.06;;;-5.37;96.94
78354;BME280;67629;46.040;18.232;2024-01-10T03:14:48;101301.53;;;-5.41;96.74
78354;BME280;67629;46.040;18.232;2024-01-10T03:15:18;101306.66;;;-5.38;96.54
78354;BME280;67629;46.040;18.232;2024-01-10T03:15:49;101310.06;;;-5.36;96.81
78354;BME280;67629;46.040;18.232;2024-01-10T03:16:19;101302.94;;;-5.35;96.48
78354;BME280;67629;46.040;18.232;2024-01-10T03:16:50;101305.91;;;-5.40;96.63
78354;BME280;67629;46.040;18.232;2024-01-10T03:17:21;101308.59;;;-5.40;97.28
78354;BME280;67629;46.040;18.232;2024-01-10T03:20:29;101306.25;;;-5.32;96.77
78354;BME280;67629;46.040;18.232;2024-01-10T03:21:00;101303.81;;;-5.35;96.52
78354;BME280;67629;46.040;18.232;2024-01-10T03:21:30;101296.47;;;-5.31;96.47
78354;BME280;67629;46.040;18.232;2024-01-10T03:22:01;101297.63;;;-5.35;95.98
78354;BME280;67629;46.040;18.232;2024-01-10T03:22:32;101292.94;;;-5.32;96.16
78354;BME280;67629;46.040;18.232;2024-01-10T03:23:02;101297.28;;;-5.31;96.70
78354;BME280;67629;46.040;18.232;2024-01-10T03:23:33;101297.22;;;-5.29;96.17